Terminal Aerodrome Forecast
Issued by NWS Wilmington, OH

Current Version | Previous Version | Graphics & Text | Print | Product List | Glossary On
Versions: 1 2 3 4 5 6 7 8 9 10 11 12 13 14 15 16 17 18 19 20 21 22 23 24
120
FTUS41 KILN 022116 AAB
TAFILN
TAF AMD
KILN 022116Z 0221/0318 36007KT P6SM SCT020 BKN040 BKN110
     FM030100 36006KT P6SM SCT020 OVC040
     FM030600 01005KT P6SM SCT015 OVC025
     FM030900 01005KT 6SM BR BKN012 OVC022
     FM031400 36006KT P6SM SCT012 OVC022=

USA.gov is the U.S. government's official web portal to all federal, state and local government web resources and services.